Time;durP1;ratioP1;P1;durP2;ratioP2;P2;SDS_P1;SDS_P2;PMS_P1;PMS_P2;Temp;Humidity;BMP_temperature;BMP_pressure;BME280_temperature;BME280_humidity;BME280_pressure;Samples;Min_cycle;Max_cycle;Signal;HPM_P1;HPM_P2
2024/04/16 00:00:41;;;;;;;77.28;58.42;;;;;;;;;;5432919;26;20191;-43
2024/04/16 00:03:08;;;;;;;84.97;54.72;;;;;;;;;;5432312;26;20065;-43
2024/04/16 00:05:35;;;;;;;53.88;43.20;;;;;;;;;;5432624;26;19998;-42
2024/04/16 00:08:01;;;;;;;54.85;43.80;;;;;;;;;;5432803;26;20201;-43
2024/04/16 00:10:28;;;;;;;54.95;42.78;;;;;;;;;;5432554;26;19987;-44
2024/04/16 00:12:55;;;;;;;47.92;41.60;;;;;;;;;;5432603;26;20303;-41
2024/04/16 00:15:22;;;;;;;48.90;40.65;;;;;;;;;;5432737;26;19987;-45
2024/04/16 00:17:48;;;;;;;51.38;38.88;;;;;;;;;;5432687;26;19999;-45
2024/04/16 00:20:15;;;;;;;47.42;37.58;;;;;;;;;;5432692;26;19996;-41
2024/04/16 00:22:43;;;;;;;43.60;37.25;;;;;;;;;;5432570;26;19998;-46
2024/04/16 00:25:09;;;;;;;42.30;36.35;;;;;;;;;;5432565;26;20000;-40
2024/04/16 00:27:36;;;;;;;40.35;36.05;;;;;;;;;;5432530;26;20092;-43
2024/04/16 00:30:03;;;;;;;43.47;37.38;;;;;;;;;;5433367;26;19988;-42
2024/04/16 00:32:30;;;;;;;41.92;37.25;;;;;;;;;;5433342;26;19983;-41
2024/04/16 00:34:56;;;;;;;40.78;36.05;;;;;;;;;;5433015;26;20209;-40
2024/04/16 00:37:23;;;;;;;43.75;37.20;;;;;;;;;;5432956;26;20007;-49
2024/04/16 00:39:50;;;;;;;41.38;37.00;;;;;;;;;;5432925;26;20088;-41
2024/04/16 00:42:16;;;;;;;40.05;35.85;;;;;;;;;;5432465;26;20080;-44
2024/04/16 00:44:43;;;;;;;42.92;36.10;;;;;;;;;;5432118;26;20003;-42
2024/04/16 00:47:11;;;;;;;41.10;36.67;;;;;;;;;;5432249;26;19984;-41
2024/04/16 00:49:37;;;;;;;39.63;35.58;;;;;;;;;;5432337;26;20188;-41
2024/04/16 00:52:06;;;;;;;41.05;36.75;;;;;;;;;;5432391;26;19988;-48
2024/04/16 00:54:32;;;;;;;39.28;35.30;;;;;;;;;;5402502;26;20096;-49
2024/04/16 00:56:59;;;;;;;41.22;36.20;;;;;;;;;;5432206;26;20185;-46
2024/04/16 00:59:27;;;;;;;43.08;35.90;;;;;;;;;;5432328;26;19995;-48
2024/04/16 01:01:56;;;;;;;41.42;36.00;;;;;;;;;;5432867;26;20062;-47
2024/04/16 01:04:23;;;;;;;42.28;36.50;;;;;;;;;;5432583;26;20150;-48
2024/04/16 01:06:51;;;;;;;45.75;35.33;;;;;;;;;;5431996;26;20003;-40
2024/04/16 01:09:18;;;;;;;41.65;34.70;;;;;;;;;;5432296;26;20204;-43
2024/04/16 01:11:48;;;;;;;63.70;39.33;;;;;;;;;;5431843;26;20192;-43
2024/04/16 01:14:15;;;;;;;54.25;37.35;;;;;;;;;;5432051;26;19995;-41
2024/04/16 01:16:42;;;;;;;62.60;40.63;;;;;;;;;;5432015;26;19997;-48
2024/04/16 01:19:09;;;;;;;55.47;41.95;;;;;;;;;;5431843;26;20019;-45
2024/04/16 01:21:35;;;;;;;51.75;41.00;;;;;;;;;;5432077;26;19987;-42
2024/04/16 01:24:02;;;;;;;48.45;40.90;;;;;;;;;;5431828;26;20037;-44
2024/04/16 01:26:29;;;;;;;49.00;42.13;;;;;;;;;;5431612;26;19995;-44
2024/04/16 01:28:56;;;;;;;55.97;42.90;;;;;;;;;;5431939;26;19983;-43
2024/04/16 01:31:22;;;;;;;46.15;40.90;;;;;;;;;;5432005;26;20085;-49
2024/04/16 01:33:49;;;;;;;45.65;39.70;;;;;;;;;;5431671;26;19983;-43
2024/04/16 01:36:15;;;;;;;43.10;38.53;;;;;;;;;;5431717;26;19999;-45
2024/04/16 01:38:42;;;;;;;43.88;38.95;;;;;;;;;;5431920;26;20012;-42
2024/04/16 01:41:10;;;;;;;47.17;38.45;;;;;;;;;;5431313;26;20074;-44
2024/04/16 01:43:37;;;;;;;44.38;37.85;;;;;;;;;;5431741;26;20141;-42
2024/04/16 01:46:04;;;;;;;43.10;37.38;;;;;;;;;;5431513;26;20096;-49
2024/04/16 01:48:31;;;;;;;42.30;37.75;;;;;;;;;;5431523;26;19983;-45
2024/04/16 01:50:57;;;;;;;41.55;37.17;;;;;;;;;;5432041;26;20048;-42
2024/04/16 01:53:24;;;;;;;40.65;36.20;;;;;;;;;;5431789;26;19994;-47
2024/04/16 01:55:51;;;;;;;42.83;35.95;;;;;;;;;;5431282;26;19987;-48
2024/04/16 01:58:17;;;;;;;39.50;35.28;;;;;;;;;;5430434;26;19999;-43
2024/04/16 02:00:44;;;;;;;38.47;34.60;;;;;;;;;;5431697;26;20003;-44
2024/04/16 02:03:11;;;;;;;40.53;36.20;;;;;;;;;;5431505;26;19987;-48
2024/04/16 02:05:38;;;;;;;40.13;35.83;;;;;;;;;;5431626;26;20003;-49
2024/04/16 02:08:04;;;;;;;41.13;36.50;;;;;;;;;;5431275;26;20200;-45
2024/04/16 02:10:31;;;;;;;39.90;35.72;;;;;;;;;;5431578;26;19999;-44
2024/04/16 02:12:57;;;;;;;39.65;35.65;;;;;;;;;;5431134;26;19999;-46
2024/04/16 02:15:24;;;;;;;49.78;36.72;;;;;;;;;;5431360;26;19994;-45
2024/04/16 02:17:50;;;;;;;118.10;106.15;;;;;;;;;;5431383;26;20070;-44
2024/04/16 02:20:17;;;;;;;96.38;86.78;;;;;;;;;;5430721;26;20001;-45
2024/04/16 02:22:44;;;;;;;66.38;59.60;;;;;;;;;;5430929;26;20031;-46
2024/04/16 02:25:11;;;;;;;55.53;49.88;;;;;;;;;;5430937;26;19994;-44
2024/04/16 02:27:37;;;;;;;53.38;47.95;;;;;;;;;;5430581;26;19991;-44
2024/04/16 02:30:04;;;;;;;154.30;97.32;;;;;;;;;;5431089;26;19983;-43
2024/04/16 02:32:31;;;;;;;144.25;111.93;;;;;;;;;;5430938;26;20003;-46
2024/04/16 02:34:58;;;;;;;77.38;67.25;;;;;;;;;;5430957;26;19999;-53
2024/04/16 02:37:24;;;;;;;67.95;58.88;;;;;;;;;;5430866;26;20100;-41
2024/04/16 02:39:51;;;;;;;58.13;51.85;;;;;;;;;;5430928;26;19998;-50
2024/04/16 02:42:18;;;;;;;53.80;47.00;;;;;;;;;;5430707;26;19995;-46
2024/04/16 02:44:44;;;;;;;47.92;42.95;;;;;;;;;;5431419;26;19991;-46
2024/04/16 02:47:11;;;;;;;47.88;42.40;;;;;;;;;;5431413;26;19991;-42
2024/04/16 02:49:37;;;;;;;43.80;39.25;;;;;;;;;;5431080;26;19984;-42
2024/04/16 02:52:04;;;;;;;44.63;38.88;;;;;;;;;;5430765;26;19991;-45
2024/04/16 02:54:30;;;;;;;43.03;38.70;;;;;;;;;;5431124;26;20048;-44
2024/04/16 02:56:57;;;;;;;41.92;37.50;;;;;;;;;;5430745;26;19987;-46
2024/04/16 02:59:24;;;;;;;42.40;37.90;;;;;;;;;;5431015;26;19987;-48
2024/04/16 03:01:53;;;;;;;41.75;37.13;;;;;;;;;;5430414;26;19999;-45
2024/04/16 03:04:19;;;;;;;40.55;36.35;;;;;;;;;;5430145;26;20119;-48
2024/04/16 03:06:46;;;;;;;42.25;35.83;;;;;;;;;;5430086;26;20041;-45
2024/04/16 03:09:12;;;;;;;39.00;35.33;;;;;;;;;;5432854;26;20016;-49
2024/04/16 03:11:39;;;;;;;38.72;34.78;;;;;;;;;;5434111;26;19994;-41
2024/04/16 03:14:05;;;;;;;37.78;34.05;;;;;;;;;;5433931;26;20050;-43
2024/04/16 03:16:32;;;;;;;37.20;33.40;;;;;;;;;;5434496;26;20016;-46
2024/04/16 03:18:59;;;;;;;38.70;34.60;;;;;;;;;;5434034;26;20041;-43
2024/04/16 03:21:26;;;;;;;37.95;34.00;;;;;;;;;;5434098;26;20188;-43
2024/04/16 03:23:52;;;;;;;37.40;33.53;;;;;;;;;;5433441;26;19983;-41
2024/04/16 03:26:19;;;;;;;38.78;34.75;;;;;;;;;;5433715;26;20048;-44
2024/04/16 03:28:46;;;;;;;37.92;34.13;;;;;;;;;;5433563;26;19983;-42
2024/04/16 03:31:12;;;;;;;38.22;34.40;;;;;;;;;;5433685;26;19994;-42
2024/04/16 03:33:39;;;;;;;39.33;35.05;;;;;;;;;;5433502;26;20027;-41
2024/04/16 03:36:05;;;;;;;38.85;34.53;;;;;;;;;;5433769;26;19998;-48
2024/04/16 03:38:32;;;;;;;37.83;34.22;;;;;;;;;;5433879;26;19999;-48
2024/04/16 03:41:02;;;;;;;38.35;34.35;;;;;;;;;;5433139;26;19999;-42
2024/04/16 03:43:29;;;;;;;38.00;34.20;;;;;;;;;;5433333;26;20200;-53
2024/04/16 03:45:57;;;;;;;40.17;35.92;;;;;;;;;;5433075;26;19992;-56
2024/04/16 03:48:24;;;;;;;39.80;36.10;;;;;;;;;;5433046;26;19991;-44
2024/04/16 03:50:51;;;;;;;41.10;36.67;;;;;;;;;;5432774;26;20040;-45
2024/04/16 03:53:17;;;;;;;40.38;36.65;;;;;;;;;;5433117;26;19984;-53
2024/04/16 03:55:44;;;;;;;41.28;37.42;;;;;;;;;;5433691;26;19998;-43
2024/04/16 03:58:11;;;;;;;41.38;37.25;;;;;;;;;;5433188;26;19991;-47
2024/04/16 04:03:23;;;;;;;40.95;37.00;;;;;;;;;;5433179;26;20025;-43
2024/04/16 04:05:49;;;;;;;41.17;36.95;;;;;;;;;;5433132;26;20084;-46
2024/04/16 04:08:16;;;;;;;41.17;36.95;;;;;;;;;;5434020;26;19983;-46
2024/04/16 04:10:43;;;;;;;39.92;36.17;;;;;;;;;;5433247;26;20083;-45
2024/04/16 04:13:09;;;;;;;41.92;37.67;;;;;;;;;;5434255;26;19983;-42
2024/04/16 04:15:39;;;;;;;44.67;37.70;;;;;;;;;;5451980;26;19993;-44
2024/04/16 04:18:06;;;;;;;47.28;38.47;;;;;;;;;;5468991;26;20007;-41
2024/04/16 04:20:33;;;;;;;43.13;38.50;;;;;;;;;;5445213;26;20003;-52
2024/04/16 04:23:00;;;;;;;45.13;40.25;;;;;;;;;;5409067;26;20049;-45
2024/04/16 04:25:26;;;;;;;44.83;40.38;;;;;;;;;;5419857;26;19992;-40
2024/04/16 04:27:53;;;;;;;45.22;40.63;;;;;;;;;;5397114;26;19998;-46
2024/04/16 04:30:19;;;;;;;44.60;40.47;;;;;;;;;;5439886;26;19988;-44
2024/04/16 04:32:49;;;;;;;45.10;40.70;;;;;;;;;;5413000;26;20038;-55
2024/04/16 04:35:16;;;;;;;42.33;38.35;;;;;;;;;;5411591;26;20004;-53
2024/04/16 04:37:43;;;;;;;43.15;38.88;;;;;;;;;;5417781;26;20042;-48
2024/04/16 04:40:10;;;;;;;41.17;37.03;;;;;;;;;;5408987;26;20057;-45
2024/04/16 04:42:36;;;;;;;39.60;35.45;;;;;;;;;;5438594;26;20011;-41
2024/04/16 04:45:03;;;;;;;39.42;35.47;;;;;;;;;;5447209;26;20007;-42
2024/04/16 04:47:29;;;;;;;40.10;36.38;;;;;;;;;;5450495;26;20052;-46
2024/04/16 04:49:56;;;;;;;35.90;32.60;;;;;;;;;;5446035;26;19994;-43
2024/04/16 04:52:23;;;;;;;36.80;33.40;;;;;;;;;;5447195;26;19994;-44
2024/04/16 04:54:49;;;;;;;37.05;33.33;;;;;;;;;;5441162;26;19995;-50
2024/04/16 04:57:16;;;;;;;37.45;33.75;;;;;;;;;;5449230;26;20211;-43
2024/04/16 04:59:42;;;;;;;35.30;31.88;;;;;;;;;;5448033;26;19998;-44
2024/04/16 05:02:09;;;;;;;37.63;34.13;;;;;;;;;;5451078;26;19995;-48
2024/04/16 05:04:36;;;;;;;37.42;33.65;;;;;;;;;;5448776;26;20150;-49
2024/04/16 05:07:03;;;;;;;37.85;34.15;;;;;;;;;;5459237;26;20104;-47
2024/04/16 05:09:29;;;;;;;36.97;33.58;;;;;;;;;;5454135;26;19987;-45
2024/04/16 05:11:56;;;;;;;37.10;33.60;;;;;;;;;;5423176;26;20007;-44
2024/04/16 05:14:25;;;;;;;35.60;32.10;;;;;;;;;;5431547;26;19991;-41
2024/04/16 05:16:51;;;;;;;36.95;33.10;;;;;;;;;;5426787;26;20077;-42
2024/04/16 05:19:18;;;;;;;36.30;32.88;;;;;;;;;;5431605;26;20007;-41
2024/04/16 05:21:45;;;;;;;35.00;31.70;;;;;;;;;;5418237;26;20006;-42
2024/04/16 05:24:12;;;;;;;35.22;31.88;;;;;;;;;;5417855;26;20134;-45
2024/04/16 05:26:39;;;;;;;34.95;31.73;;;;;;;;;;5398462;26;20002;-42
2024/04/16 05:29:05;;;;;;;34.55;31.27;;;;;;;;;;5427350;26;20014;-47
2024/04/16 05:31:32;;;;;;;33.00;29.70;;;;;;;;;;5429620;26;19992;-42
2024/04/16 05:33:59;;;;;;;34.40;30.90;;;;;;;;;;5431357;26;19991;-44
2024/04/16 05:36:25;;;;;;;31.65;28.45;;;;;;;;;;5431193;26;20143;-41
2024/04/16 05:38:52;;;;;;;33.08;29.85;;;;;;;;;;5435811;26;20062;-44
2024/04/16 05:41:19;;;;;;;32.20;28.92;;;;;;;;;;5431383;26;20096;-45
2024/04/16 05:43:46;;;;;;;31.52;28.55;;;;;;;;;;5433158;26;20036;-37
2024/04/16 05:46:13;;;;;;;32.58;29.48;;;;;;;;;;5430244;26;20023;-40
2024/04/16 05:48:40;;;;;;;31.48;28.35;;;;;;;;;;5428925;26;19998;-41
2024/04/16 05:51:06;;;;;;;32.25;28.80;;;;;;;;;;5415362;26;20204;-43
2024/04/16 05:53:33;;;;;;;32.75;29.45;;;;;;;;;;5411451;26;20040;-44
2024/04/16 05:56:00;;;;;;;30.85;27.80;;;;;;;;;;5400730;26;19984;-35
2024/04/16 05:58:27;;;;;;;30.23;27.42;;;;;;;;;;5416161;26;19998;-42
2024/04/16 06:00:53;;;;;;;31.38;28.33;;;;;;;;;;5431346;26;20147;-42
2024/04/16 06:03:20;;;;;;;29.65;26.83;;;;;;;;;;5431429;26;19988;-43
2024/04/16 06:05:46;;;;;;;30.83;27.75;;;;;;;;;;5431346;26;19995;-42
2024/04/16 06:08:13;;;;;;;30.20;27.33;;;;;;;;;;5430945;26;19995;-42
2024/04/16 06:10:40;;;;;;;30.27;27.48;;;;;;;;;;5430616;26;20003;-41
2024/04/16 06:13:07;;;;;;;28.98;26.08;;;;;;;;;;5430798;26;20031;-44
2024/04/16 06:15:33;;;;;;;28.70;26.08;;;;;;;;;;5430959;26;20015;-46
2024/04/16 06:18:01;;;;;;;28.52;25.83;;;;;;;;;;5431051;26;20003;-37
2024/04/16 06:20:28;;;;;;;29.13;26.30;;;;;;;;;;5421095;26;20099;-52
2024/04/16 06:22:54;;;;;;;29.83;27.08;;;;;;;;;;5412185;26;20093;-42
2024/04/16 06:25:21;;;;;;;28.92;26.08;;;;;;;;;;5411855;26;19992;-46
2024/04/16 06:27:49;;;;;;;29.20;26.23;;;;;;;;;;5405058;26;20015;-42
2024/04/16 06:30:16;;;;;;;28.73;26.02;;;;;;;;;;5430887;26;19998;-42
2024/04/16 06:32:42;;;;;;;29.25;26.42;;;;;;;;;;5430698;26;19994;-42
2024/04/16 06:35:09;;;;;;;27.83;25.20;;;;;;;;;;5437098;26;20002;-48
2024/04/16 06:37:35;;;;;;;27.58;25.05;;;;;;;;;;5450712;26;20011;-40
2024/04/16 06:40:02;;;;;;;27.98;25.33;;;;;;;;;;5466535;26;19990;-37
2024/04/16 06:42:29;;;;;;;27.13;24.65;;;;;;;;;;5465877;26;20003;-42
2024/04/16 06:44:56;;;;;;;28.40;25.80;;;;;;;;;;5466476;26;20091;-41
2024/04/16 06:47:23;;;;;;;26.95;24.48;;;;;;;;;;5466196;26;19983;-45
2024/04/16 06:49:49;;;;;;;27.33;24.80;;;;;;;;;;5466832;26;19983;-39
2024/04/16 06:52:16;;;;;;;28.17;25.58;;;;;;;;;;5466340;26;19983;-41
2024/04/16 06:54:43;;;;;;;27.27;24.52;;;;;;;;;;5466448;26;20003;-46
2024/04/16 06:57:09;;;;;;;25.98;23.42;;;;;;;;;;5466275;26;19987;-47
2024/04/16 06:59:36;;;;;;;26.10;23.60;;;;;;;;;;5466146;26;20002;-46
2024/04/16 07:02:02;;;;;;;26.40;23.85;;;;;;;;;;5466310;26;19995;-41
2024/04/16 07:04:29;;;;;;;26.60;24.25;;;;;;;;;;5466311;26;19987;-41
2024/04/16 07:06:56;;;;;;;27.33;24.73;;;;;;;;;;5466230;26;20271;-42
2024/04/16 07:09:22;;;;;;;26.08;23.58;;;;;;;;;;5466325;26;19997;-41
2024/04/16 07:11:49;;;;;;;25.25;22.95;;;;;;;;;;5465886;26;19987;-44
2024/04/16 07:14:15;;;;;;;25.67;23.00;;;;;;;;;;5466265;26;20216;-41
2024/04/16 07:16:42;;;;;;;25.40;23.00;;;;;;;;;;5466273;26;19987;-43
2024/04/16 07:19:09;;;;;;;25.95;23.48;;;;;;;;;;5465614;26;19991;-44
2024/04/16 07:21:35;;;;;;;24.70;22.38;;;;;;;;;;5465930;26;20229;-44
2024/04/16 07:24:02;;;;;;;24.65;22.35;;;;;;;;;;5466001;26;19993;-42
2024/04/16 07:26:29;;;;;;;25.20;22.75;;;;;;;;;;5465657;26;19987;-48
2024/04/16 07:28:55;;;;;;;25.70;23.10;;;;;;;;;;5465921;26;20095;-44
2024/04/16 07:31:22;;;;;;;24.20;21.92;;;;;;;;;;5465918;26;20026;-46
2024/04/16 07:33:49;;;;;;;25.45;22.85;;;;;;;;;;5465778;26;20294;-44
2024/04/16 07:36:15;;;;;;;25.63;23.02;;;;;;;;;;5465728;26;19983;-41
2024/04/16 07:38:42;;;;;;;24.63;22.23;;;;;;;;;;5465399;26;19997;-42
2024/04/16 07:41:09;;;;;;;24.30;22.00;;;;;;;;;;5465405;26;19993;-42
2024/04/16 07:43:36;;;;;;;24.40;22.08;;;;;;;;;;5465586;26;19991;-42
2024/04/16 07:46:02;;;;;;;25.13;22.50;;;;;;;;;;5465537;26;19986;-41
2024/04/16 07:48:29;;;;;;;24.20;21.80;;;;;;;;;;5465047;26;20100;-51
2024/04/16 07:50:55;;;;;;;24.35;22.10;;;;;;;;;;5465487;26;20165;-41
2024/04/16 07:53:22;;;;;;;24.00;21.70;;;;;;;;;;5465773;26;19997;-44
2024/04/16 07:55:49;;;;;;;23.85;21.65;;;;;;;;;;5467320;26;19998;-41
2024/04/16 07:58:15;;;;;;;24.65;22.33;;;;;;;;;;5468884;26;20268;-51
2024/04/16 08:00:42;;;;;;;24.25;21.77;;;;;;;;;;5468797;26;19986;-42
2024/04/16 08:03:08;;;;;;;24.45;21.88;;;;;;;;;;5468887;26;20103;-45
2024/04/16 08:05:36;;;;;;;24.52;22.23;;;;;;;;;;5469127;26;19986;-42
2024/04/16 08:08:03;;;;;;;24.10;21.80;;;;;;;;;;5469027;26;20003;-40
2024/04/16 08:10:30;;;;;;;25.20;22.17;;;;;;;;;;5468820;26;20092;-51
2024/04/16 08:12:56;;;;;;;24.52;22.17;;;;;;;;;;5468831;26;19995;-46
2024/04/16 08:15:23;;;;;;;23.75;21.58;;;;;;;;;;5468995;26;20039;-40
2024/04/16 08:17:50;;;;;;;23.63;21.25;;;;;;;;;;5468923;26;20057;-42
2024/04/16 08:20:17;;;;;;;23.65;21.35;;;;;;;;;;5468537;26;19987;-47
2024/04/16 08:22:44;;;;;;;23.00;20.90;;;;;;;;;;5468753;26;19994;-43
2024/04/16 08:25:11;;;;;;;23.52;21.10;;;;;;;;;;5468776;26;19989;-42
2024/04/16 08:27:38;;;;;;;22.65;20.25;;;;;;;;;;5468534;26;20015;-42
2024/04/16 08:30:05;;;;;;;22.25;20.13;;;;;;;;;;5468750;26;20091;-43
2024/04/16 08:32:32;;;;;;;22.65;20.33;;;;;;;;;;5468577;26;20010;-40
2024/04/16 08:34:58;;;;;;;23.25;20.73;;;;;;;;;;5468486;26;19989;-40
2024/04/16 08:37:25;;;;;;;22.65;20.25;;;;;;;;;;5468515;26;19991;-37
2024/04/16 08:39:51;;;;;;;22.58;20.27;;;;;;;;;;5468457;26;19987;-38
2024/04/16 08:42:18;;;;;;;23.23;20.73;;;;;;;;;;5468220;26;20020;-39
2024/04/16 08:44:45;;;;;;;21.73;19.63;;;;;;;;;;5468485;26;19983;-38
2024/04/16 08:47:13;;;;;;;23.05;20.67;;;;;;;;;;5468241;26;20196;-42
2024/04/16 08:49:40;;;;;;;21.48;19.42;;;;;;;;;;5468222;26;19987;-44
2024/04/16 08:52:08;;;;;;;21.90;19.85;;;;;;;;;;5468313;26;20196;-42
2024/04/16 08:54:36;;;;;;;20.70;18.48;;;;;;;;;;5468102;26;20127;-42
2024/04/16 08:57:03;;;;;;;22.35;20.08;;;;;;;;;;5467987;26;19991;-42
2024/04/16 08:59:30;;;;;;;21.15;18.95;;;;;;;;;;5468082;26;20043;-38
2024/04/16 09:01:57;;;;;;;21.45;19.30;;;;;;;;;;5468294;26;20002;-42
2024/04/16 09:04:24;;;;;;;20.80;18.60;;;;;;;;;;5467779;26;20010;-36
2024/04/16 09:06:52;;;;;;;22.27;19.92;;;;;;;;;;5467817;26;20196;-41
2024/04/16 09:09:18;;;;;;;21.27;19.15;;;;;;;;;;5468350;26;19989;-40
2024/04/16 09:11:45;;;;;;;20.38;17.63;;;;;;;;;;5467768;26;20099;-40
2024/04/16 09:14:12;;;;;;;20.35;18.13;;;;;;;;;;5468069;26;20077;-39
2024/04/16 09:16:38;;;;;;;20.88;18.75;;;;;;;;;;5467967;26;19998;-40
2024/04/16 09:19:06;;;;;;;20.33;18.30;;;;;;;;;;5467741;26;20196;-39
2024/04/16 09:21:33;;;;;;;20.20;18.23;;;;;;;;;;5468093;26;19995;-42
2024/04/16 09:24:02;;;;;;;20.08;18.02;;;;;;;;;;5468092;26;19993;-49
2024/04/16 09:26:29;;;;;;;20.45;18.10;;;;;;;;;;5467843;26;20160;-42
2024/04/16 09:28:55;;;;;;;19.63;17.83;;;;;;;;;;5467861;26;19983;-40
2024/04/16 09:31:22;;;;;;;19.50;17.58;;;;;;;;;;5467721;26;20006;-42
2024/04/16 09:33:48;;;;;;;20.73;18.63;;;;;;;;;;5467717;26;20137;-44
2024/04/16 09:36:15;;;;;;;20.95;18.70;;;;;;;;;;5467708;26;20099;-38
2024/04/16 09:38:45;;;;;;;21.73;19.25;;;;;;;;;;5467646;26;19994;-37
2024/04/16 09:41:12;;;;;;;21.48;19.08;;;;;;;;;;5439465;26;20012;-50
2024/04/16 09:43:42;;;;;;;23.00;19.13;;;;;;;;;;5431599;26;19999;-47
2024/04/16 09:46:15;;;;;;;20.70;18.60;;;;;;;;;;5431500;26;20093;-41
2024/04/16 09:48:42;;;;;;;22.42;19.17;;;;;;;;;;5431647;26;19988;-39
2024/04/16 09:51:09;;;;;;;22.30;19.60;;;;;;;;;;5431528;26;20081;-40
2024/04/16 09:53:37;;;;;;;22.67;18.85;;;;;;;;;;5431523;26;19988;-41
2024/04/16 09:56:08;;;;;;;21.95;18.30;;;;;;;;;;5431275;26;19988;-40
2024/04/16 09:58:36;;;;;;;21.52;18.85;;;;;;;;;;5431266;26;19998;-40
2024/04/16 10:01:03;;;;;;;20.58;18.48;;;;;;;;;;5431116;26;20089;-45
2024/04/16 10:03:30;;;;;;;21.50;18.67;;;;;;;;;;5431445;26;19987;-39
2024/04/16 10:05:57;;;;;;;20.30;18.30;;;;;;;;;;5431480;26;19995;-43
2024/04/16 10:08:26;;;;;;;20.75;18.65;;;;;;;;;;5431157;26;20020;-38
2024/04/16 10:10:54;;;;;;;22.85;17.95;;;;;;;;;;5431307;26;19983;-49
2024/04/16 10:13:21;;;;;;;22.73;18.08;;;;;;;;;;5431329;26;19988;-44
2024/04/16 10:15:48;;;;;;;19.67;17.73;;;;;;;;;;5431406;26;20036;-41
2024/04/16 10:18:14;;;;;;;24.63;17.85;;;;;;;;;;5430131;26;19991;-44
2024/04/16 10:20:57;;;;;;;24.63;18.30;;;;;;;;;;5431186;26;20188;-42
2024/04/16 10:23:24;;;;;;;21.23;17.55;;;;;;;;;;5430941;26;20093;-42
2024/04/16 10:25:51;;;;;;;23.50;17.98;;;;;;;;;;5431001;26;20043;-44
2024/04/16 10:28:25;;;;;;;24.27;18.13;;;;;;;;;;5430995;26;20015;-44
2024/04/16 10:31:01;;;;;;;20.88;18.58;;;;;;;;;;5430962;26;19987;-45
2024/04/16 10:33:28;;;;;;;21.45;18.05;;;;;;;;;;5430933;26;20089;-45
2024/04/16 10:35:55;;;;;;;23.73;18.52;;;;;;;;;;5430637;26;20244;-48
2024/04/16 10:38:24;;;;;;;22.67;18.20;;;;;;;;;;5430673;26;19991;-41
2024/04/16 10:40:55;;;;;;;22.92;18.80;;;;;;;;;;5431038;26;20085;-45
2024/04/16 10:43:27;;;;;;;25.58;18.33;;;;;;;;;;5430416;26;19988;-43
2024/04/16 10:45:54;;;;;;;29.45;18.77;;;;;;;;;;5430652;26;20196;-44
2024/04/16 10:48:22;;;;;;;26.98;18.30;;;;;;;;;;5430388;26;19996;-46
2024/04/16 10:50:49;;;;;;;29.55;18.23;;;;;;;;;;5430571;26;20002;-42
2024/04/16 10:53:18;;;;;;;33.67;18.52;;;;;;;;;;5430558;26;19991;-43
2024/04/16 10:55:45;;;;;;;27.98;18.70;;;;;;;;;;5430295;26;19988;-47
2024/04/16 10:58:15;;;;;;;34.28;19.67;;;;;;;;;;5430280;26;19987;-49
2024/04/16 11:00:44;;;;;;;37.47;19.42;;;;;;;;;;5430041;26;19991;-43
2024/04/16 11:03:11;;;;;;;30.35;19.17;;;;;;;;;;5430154;26;20216;-43
2024/04/16 11:05:40;;;;;;;30.95;19.45;;;;;;;;;;5430115;26;19991;-46
2024/04/16 11:08:08;;;;;;;36.17;19.63;;;;;;;;;;5430108;26;20056;-43
2024/04/16 11:10:34;;;;;;;34.58;19.55;;;;;;;;;;5429680;26;19988;-45
2024/04/16 11:13:01;;;;;;;31.17;19.20;;;;;;;;;;5430004;26;19988;-42
2024/04/16 11:15:34;;;;;;;37.00;19.60;;;;;;;;;;5430042;26;19998;-44
2024/04/16 11:18:02;;;;;;;34.15;19.42;;;;;;;;;;5429808;26;19992;-45
2024/04/16 11:20:28;;;;;;;37.53;19.02;;;;;;;;;;5430094;26;20096;-45
2024/04/16 11:22:55;;;;;;;36.25;19.73;;;;;;;;;;5429709;26;19999;-41
2024/04/16 11:25:22;;;;;;;39.90;19.30;;;;;;;;;;5398133;26;19988;-41
2024/04/16 11:27:49;;;;;;;52.22;18.95;;;;;;;;;;5387487;26;19992;-44
2024/04/16 11:30:16;;;;;;;33.95;18.40;;;;;;;;;;5362006;26;19984;-44
2024/04/16 11:32:42;;;;;;;42.25;18.58;;;;;;;;;;5371276;26;20027;-43
2024/04/16 11:35:10;;;;;;;35.17;18.15;;;;;;;;;;5391535;26;20000;-40
2024/04/16 11:37:40;;;;;;;34.75;18.35;;;;;;;;;;5391963;26;19996;-48
2024/04/16 11:40:07;;;;;;;48.63;18.95;;;;;;;;;;5375828;26;19993;-40
2024/04/16 11:42:36;;;;;;;49.47;19.13;;;;;;;;;;5359466;26;20000;-47
2024/04/16 11:45:02;;;;;;;36.38;19.10;;;;;;;;;;5372609;26;19992;-43
2024/04/16 11:47:29;;;;;;;50.33;19.23;;;;;;;;;;5375595;26;20105;-44
2024/04/16 11:49:57;;;;;;;39.10;19.42;;;;;;;;;;5394908;26;20008;-46
2024/04/16 11:52:24;;;;;;;45.90;18.45;;;;;;;;;;5396722;26;20193;-45
2024/04/16 11:54:51;;;;;;;40.38;18.38;;;;;;;;;;5395500;26;20000;-43
2024/04/16 11:57:18;;;;;;;28.65;17.42;;;;;;;;;;5403363;26;19995;-45
2024/04/16 11:59:44;;;;;;;31.35;17.98;;;;;;;;;;5430010;26;20010;-42
2024/04/16 12:02:12;;;;;;;34.88;17.58;;;;;;;;;;5400386;26;19995;-45
2024/04/16 12:04:39;;;;;;;35.40;17.50;;;;;;;;;;5418760;26;19994;-45
2024/04/16 12:07:05;;;;;;;36.58;18.45;;;;;;;;;;5429128;26;20005;-44
2024/04/16 12:09:32;;;;;;;27.48;18.25;;;;;;;;;;5427882;26;19992;-39
2024/04/16 12:11:58;;;;;;;28.02;19.42;;;;;;;;;;5450897;26;20003;-41
2024/04/16 12:14:25;;;;;;;32.90;18.90;;;;;;;;;;5417635;26;19999;-46
2024/04/16 12:16:51;;;;;;;31.17;18.67;;;;;;;;;;5405826;26;19988;-45
2024/04/16 12:19:18;;;;;;;34.42;18.75;;;;;;;;;;5468336;26;19995;-42
2024/04/16 12:21:45;;;;;;;39.53;19.55;;;;;;;;;;5468909;26;19987;-45
2024/04/16 12:24:11;;;;;;;40.20;19.80;;;;;;;;;;5431084;26;19992;-40
2024/04/16 12:26:38;;;;;;;29.77;19.60;;;;;;;;;;5403633;26;19985;-40
2024/04/16 12:29:05;;;;;;;29.85;18.83;;;;;;;;;;5426330;26;19983;-48
2024/04/16 12:31:32;;;;;;;35.50;19.60;;;;;;;;;;5396992;26;19995;-48
2024/04/16 12:34:01;;;;;;;37.53;19.35;;;;;;;;;;5397093;26;20068;-44
2024/04/16 12:36:28;;;;;;;31.02;19.58;;;;;;;;;;5396858;26;20000;-51
2024/04/16 12:38:56;;;;;;;34.15;19.73;;;;;;;;;;5396802;26;19984;-47
2024/04/16 12:41:22;;;;;;;27.40;19.38;;;;;;;;;;5399549;26;20229;-45
2024/04/16 12:43:49;;;;;;;29.65;21.95;;;;;;;;;;5459424;26;19991;-48
2024/04/16 12:46:16;;;;;;;31.45;22.45;;;;;;;;;;5426786;26;20002;-47
2024/04/16 12:48:42;;;;;;;31.60;24.13;;;;;;;;;;5406275;26;19996;-48
2024/04/16 12:51:09;;;;;;;28.42;23.98;;;;;;;;;;5411089;26;19988;-47
2024/04/16 12:53:36;;;;;;;29.50;24.65;;;;;;;;;;5397094;26;20004;-44
2024/04/16 12:56:02;;;;;;;28.48;24.85;;;;;;;;;;5415888;26;20307;-48
2024/04/16 12:58:29;;;;;;;31.17;25.05;;;;;;;;;;5415071;26;19999;-49
2024/04/16 13:00:55;;;;;;;28.92;24.42;;;;;;;;;;5415537;26;20016;-46
2024/04/16 13:03:22;;;;;;;30.85;24.77;;;;;;;;;;5406880;26;19995;-44
2024/04/16 13:05:49;;;;;;;31.42;25.70;;;;;;;;;;5411896;26;19994;-43
2024/04/16 13:08:15;;;;;;;30.73;26.20;;;;;;;;;;5396535;26;19992;-40
2024/04/16 13:10:42;;;;;;;30.42;25.05;;;;;;;;;;5414854;26;20101;-46
2024/04/16 13:13:08;;;;;;;29.52;25.23;;;;;;;;;;5428764;26;20010;-47
2024/04/16 13:15:35;;;;;;;34.58;26.17;;;;;;;;;;5431261;26;20076;-42
2024/04/16 13:18:02;;;;;;;34.90;26.67;;;;;;;;;;5435630;26;20085;-44
2024/04/16 13:20:29;;;;;;;33.97;26.70;;;;;;;;;;5427896;26;20012;-46
2024/04/16 13:22:55;;;;;;;48.45;27.63;;;;;;;;;;5430211;26;19995;-46
2024/04/16 13:25:22;;;;;;;38.03;24.42;;;;;;;;;;5427702;26;19999;-45
2024/04/16 13:27:48;;;;;;;32.50;23.98;;;;;;;;;;5431756;26;20125;-42
2024/04/16 13:30:15;;;;;;;31.10;23.17;;;;;;;;;;5432386;26;20108;-43
2024/04/16 13:32:42;;;;;;;30.25;21.77;;;;;;;;;;5435204;26;19996;-40
2024/04/16 13:35:09;;;;;;;25.20;21.67;;;;;;;;;;5431776;26;20060;-47
2024/04/16 13:37:35;;;;;;;25.58;20.77;;;;;;;;;;5431642;26;19987;-49
2024/04/16 13:40:02;;;;;;;27.45;21.02;;;;;;;;;;5431532;26;20204;-46
2024/04/16 13:42:29;;;;;;;25.83;20.38;;;;;;;;;;5432186;26;20000;-48
2024/04/16 13:44:55;;;;;;;27.65;20.13;;;;;;;;;;5431597;26;20091;-47
2024/04/16 13:47:22;;;;;;;26.52;19.48;;;;;;;;;;5431888;26;19999;-40
2024/04/16 13:49:50;;;;;;;27.05;20.38;;;;;;;;;;5428472;26;20043;-43
2024/04/16 13:52:16;;;;;;;23.60;19.98;;;;;;;;;;5425094;26;20002;-40
2024/04/16 13:54:43;;;;;;;22.17;19.35;;;;;;;;;;5430912;26;19991;-39
2024/04/16 13:57:09;;;;;;;26.75;19.20;;;;;;;;;;5429692;26;20011;-41
2024/04/16 13:59:36;;;;;;;20.75;18.65;;;;;;;;;;5419787;26;19999;-39
2024/04/16 14:02:02;;;;;;;21.38;19.02;;;;;;;;;;5415428;26;19988;-41
2024/04/16 14:04:29;;;;;;;21.88;18.80;;;;;;;;;;5395773;26;20012;-48
2024/04/16 14:06:56;;;;;;;22.25;19.17;;;;;;;;;;5395880;26;20143;-48
2024/04/16 14:09:24;;;;;;;23.15;19.40;;;;;;;;;;5406184;26;20020;-43
2024/04/16 14:11:51;;;;;;;20.25;18.10;;;;;;;;;;5409465;26;19999;-48
2024/04/16 14:14:19;;;;;;;21.10;19.02;;;;;;;;;;5403103;26;20000;-45
2024/04/16 14:16:45;;;;;;;25.65;18.73;;;;;;;;;;5407956;26;19988;-45